Airfield :
LOGIN :

Register | Disclaimer

   EN    FR    IT 

 










Legend :    VFR   Marginal VFR   IFR   Intensive IFR   Very Intensive IFR
Visi :
Ceiling :
>= 8 km
>= 3000ft
5 to 8 km
1000 to 3000 ft
1500m to 5 km
500 to 1000 ft
800 to 1500m
200 to 500 ft
< 800m
< 200 ft
Symbols :   Thunderstorms  Fog  Heavy snow  Heavy precipitations  Wind > 20 kt
SIGMETs :     Misc.  Thunderstorms  Icing  Turbulence  Mountain Waves  Volcanic Ashes






- Airport Elevation : 465 ft
- IATA code : LEJ


EDDP - Leipzig Halle

CURRENT METAR :
  • 242220Z 21006KT 4500 BR OVC007 M01/M02 Q1022 TEMPO 5000 BR OVC004

EXPIRED METARs :
  • 242150Z 24004KT 4500 BR OVC006 M01/M02 Q1022 TEMPO 5000 BR OVC004
  • 242120Z 28005KT 4000 BR OVC005 M01/M02 Q1022 TEMPO 5000 BR OVC004
  • 242050Z 29004KT 5000 BR OVC007 M01/M02 Q1022 TEMPO 4000 BR
  • 242020Z 25006KT 6000 SCT008 M02/M03 Q1022 BECMG 4000 BR BKN008
  • 241950Z 26006KT 6000 NSC M03/M04 Q1022 BECMG 4000 BR BKN008

TAF TAF EDDP
Valid from the 24 at 18:00 until the 25 at 18:00 UTC


241700Z 2418/2518 24005KT 8000 NSC
BECMG 2418/2422 3000 BR BKN008
PROB30
TEMPO 2422/2510 0100 FZFG OVC001
BECMG 2510/2512 8000



MET'MAP, your aeronautical weather chart ! - Copyright ORBIFLY December 2007 - Disclaimer

ORBIFLY MET'MAP TEAM :

Programming & Development : Alexandra Zaïnal
Concept & original design : Baudouin d'Aumeries
Assistance for programming : Marc-Olivier Méhu
Technical & hardware support : Manuel Goepfert

Contact : metmap@orbifly.com




SOURCES & CREDITS :

   NOAA